Time;durP1;ratioP1;P1;durP2;ratioP2;P2;SDS_P1;SDS_P2;PMS_P1;PMS_P2;Temp;Humidity;BMP_temperature;BMP_pressure;BME280_temperature;BME280_humidity;BME280_pressure;Samples;Min_cycle;Max_cycle;Signal;HPM_P1;HPM_P2
2022/07/13 00:01:18;;;;;;;16.33;12.20;;;;;;;;;;5022720;28;20045;-77
2022/07/13 00:03:44;;;;;;;15.25;12.60;;;;;;;;;;5022259;28;20037;-77
2022/07/13 00:06:10;;;;;;;13.30;11.93;;;;;;;;;;5022911;28;20069;-77
2022/07/13 00:08:36;;;;;;;14.90;11.93;;;;;;;;;;5022730;28;20049;-77
2022/07/13 00:11:02;;;;;;;17.55;12.95;;;;;;;;;;5020004;28;20088;-78
2022/07/13 00:13:28;;;;;;;13.85;12.45;;;;;;;;;;5022302;28;20141;-77
2022/07/13 00:15:55;;;;;;;18.70;14.43;;;;;;;;;;5022122;28;20041;-77
2022/07/13 00:18:21;;;;;;;15.15;13.23;;;;;;;;;;5022262;28;20041;-78
2022/07/13 00:20:47;;;;;;;15.70;13.43;;;;;;;;;;5022531;28;20059;-77
2022/07/13 00:23:13;;;;;;;16.20;13.35;;;;;;;;;;5022763;28;20078;-78
2022/07/13 00:25:39;;;;;;;15.38;12.60;;;;;;;;;;5021294;28;20120;-78
2022/07/13 00:28:05;;;;;;;14.65;13.13;;;;;;;;;;5021087;28;20133;-77
2022/07/13 00:30:31;;;;;;;17.85;14.68;;;;;;;;;;5022088;28;20050;-77
2022/07/13 00:32:57;;;;;;;15.48;13.88;;;;;;;;;;5010584;28;20048;-78
2022/07/13 00:35:23;;;;;;;18.67;15.15;;;;;;;;;;5019832;28;20476;-78
2022/07/13 00:37:49;;;;;;;18.05;13.45;;;;;;;;;;5021761;28;20037;-77
2022/07/13 00:40:15;;;;;;;14.82;12.73;;;;;;;;;;5021786;28;20049;-77
2022/07/13 00:42:41;;;;;;;16.40;14.00;;;;;;;;;;5021128;28;20068;-78
2022/07/13 00:45:07;;;;;;;17.95;14.75;;;;;;;;;;5020582;28;20052;-77
2022/07/13 00:47:33;;;;;;;18.63;14.35;;;;;;;;;;5020824;28;20049;-77
2022/07/13 00:50:06;;;;;;;18.23;12.80;;;;;;;;;;5021577;28;20064;-78
2022/07/13 00:52:32;;;;;;;16.00;13.00;;;;;;;;;;5021679;28;20585;-77
2022/07/13 00:54:58;;;;;;;16.30;12.10;;;;;;;;;;5021586;28;20076;-77
2022/07/13 00:57:26;;;;;;;14.27;12.88;;;;;;;;;;5021121;28;20439;-78
2022/07/13 00:59:52;;;;;;;16.77;12.98;;;;;;;;;;5021021;28;20042;-78
2022/07/13 01:02:18;;;;;;;18.08;14.98;;;;;;;;;;5022081;28;20887;-78
2022/07/13 01:04:44;;;;;;;16.02;13.38;;;;;;;;;;5026334;22;20220;-77
2022/07/13 01:07:11;;;;;;;15.45;13.98;;;;;;;;;;5002270;28;20567;-78
2022/07/13 01:09:37;;;;;;;16.67;12.13;;;;;;;;;;5001760;28;20774;-78
2022/07/13 01:12:04;;;;;;;18.15;13.43;;;;;;;;;;4996051;28;20038;-77
2022/07/13 01:14:30;;;;;;;19.55;13.57;;;;;;;;;;4993498;28;20096;-77
2022/07/13 01:16:58;;;;;;;15.63;13.52;;;;;;;;;;5001795;28;20391;-79
2022/07/13 01:19:25;;;;;;;16.63;13.32;;;;;;;;;;5001814;28;20049;-77
2022/07/13 01:21:55;;;;;;;15.57;12.40;;;;;;;;;;5001179;28;20045;-78
2022/07/13 01:24:21;;;;;;;14.73;12.20;;;;;;;;;;5001668;28;20192;-78
2022/07/13 01:26:49;;;;;;;16.75;12.52;;;;;;;;;;4999997;28;20054;-78
2022/07/13 01:29:15;;;;;;;14.88;12.48;;;;;;;;;;5000137;28;20130;-78
2022/07/13 01:31:42;;;;;;;12.18;11.02;;;;;;;;;;5001926;28;20066;-78
2022/07/13 01:34:08;;;;;;;17.38;11.15;;;;;;;;;;5001012;28;20475;-78
2022/07/13 01:36:35;;;;;;;13.18;11.10;;;;;;;;;;5000383;28;20408;-78
2022/07/13 01:39:02;;;;;;;16.38;12.23;;;;;;;;;;5001105;28;20038;-77
2022/07/13 01:41:31;;;;;;;14.75;10.65;;;;;;;;;;5000149;28;20046;-77
2022/07/13 01:43:58;;;;;;;10.80;8.77;;;;;;;;;;4999423;28;20186;-78
2022/07/13 01:46:25;;;;;;;12.23;10.25;;;;;;;;;;5000334;28;20116;-78
2022/07/13 01:48:51;;;;;;;14.00;8.93;;;;;;;;;;5000998;28;20045;-78
2022/07/13 01:51:17;;;;;;;10.48;7.95;;;;;;;;;;5000747;28;20049;-78
2022/07/13 01:53:44;;;;;;;9.55;7.32;;;;;;;;;;5001171;28;20073;-78
2022/07/13 01:56:09;;;;;;;7.45;6.75;;;;;;;;;;5000154;28;20046;-78
2022/07/13 01:58:35;;;;;;;10.82;8.07;;;;;;;;;;5001306;28;20076;-78
2022/07/13 02:01:02;;;;;;;12.85;8.23;;;;;;;;;;5000887;28;20038;-78
2022/07/13 02:03:29;;;;;;;7.45;6.53;;;;;;;;;;4999558;28;20058;-78
2022/07/13 02:05:55;;;;;;;9.65;7.65;;;;;;;;;;4999722;28;20443;-78
2022/07/13 02:08:21;;;;;;;6.85;6.15;;;;;;;;;;5000391;28;20054;-78
2022/07/13 02:10:47;;;;;;;8.75;7.85;;;;;;;;;;4999105;28;20188;-78
2022/07/13 02:13:14;;;;;;;9.52;6.47;;;;;;;;;;4999493;28;20049;-78
2022/07/13 02:15:40;;;;;;;7.30;6.60;;;;;;;;;;5000897;28;20052;-77
2022/07/13 02:18:07;;;;;;;8.35;5.68;;;;;;;;;;5000870;28;20046;-77
2022/07/13 02:20:33;;;;;;;10.77;7.30;;;;;;;;;;4999400;28;20042;-77
2022/07/13 02:22:59;;;;;;;7.53;6.38;;;;;;;;;;5000422;28;20052;-77
2022/07/13 02:25:25;;;;;;;8.15;6.28;;;;;;;;;;4999482;28;20503;-78
2022/07/13 02:27:51;;;;;;;7.90;6.60;;;;;;;;;;4998836;28;20046;-78
2022/07/13 02:30:17;;;;;;;6.32;5.10;;;;;;;;;;5000697;28;20429;-78
2022/07/13 02:32:45;;;;;;;7.40;6.03;;;;;;;;;;4999920;28;20117;-77
2022/07/13 02:35:11;;;;;;;7.15;5.95;;;;;;;;;;4999415;28;20084;-77
2022/07/13 02:37:38;;;;;;;6.50;5.47;;;;;;;;;;5000559;28;20065;-77
2022/07/13 02:40:04;;;;;;;7.10;5.78;;;;;;;;;;5000126;28;20403;-77
2022/07/13 02:42:30;;;;;;;5.72;4.97;;;;;;;;;;4999472;28;20139;-78
2022/07/13 02:44:56;;;;;;;6.22;5.30;;;;;;;;;;5000288;28;20061;-77
2022/07/13 02:47:23;;;;;;;6.28;5.65;;;;;;;;;;5000540;28;20538;-77
2022/07/13 02:49:49;;;;;;;5.53;5.03;;;;;;;;;;5000322;28;20050;-78
2022/07/13 02:52:16;;;;;;;7.32;4.88;;;;;;;;;;4998850;28;20665;-78
2022/07/13 02:54:42;;;;;;;7.53;4.80;;;;;;;;;;4999501;28;20129;-78
2022/07/13 02:57:08;;;;;;;5.05;4.63;;;;;;;;;;4999412;28;20443;-77
2022/07/13 02:59:37;;;;;;;7.05;4.65;;;;;;;;;;4998537;28;20045;-78
2022/07/13 03:02:04;;;;;;;7.72;5.35;;;;;;;;;;5000471;28;20071;-78
2022/07/13 03:04:30;;;;;;;5.20;4.72;;;;;;;;;;5003847;28;20068;-78
2022/07/13 03:06:56;;;;;;;5.88;5.22;;;;;;;;;;5003413;28;20037;-78
2022/07/13 03:09:22;;;;;;;7.05;5.03;;;;;;;;;;5002693;28;20049;-77
2022/07/13 03:11:48;;;;;;;6.18;5.38;;;;;;;;;;4983624;28;20113;-78
2022/07/13 03:14:14;;;;;;;6.95;4.88;;;;;;;;;;4984539;28;20050;-77
2022/07/13 03:16:40;;;;;;;6.55;5.78;;;;;;;;;;4984957;28;20053;-77
2022/07/13 03:19:07;;;;;;;7.32;5.13;;;;;;;;;;5002777;28;20096;-77
2022/07/13 03:21:33;;;;;;;6.38;5.43;;;;;;;;;;5003486;28;20050;-77
2022/07/13 03:23:59;;;;;;;9.20;5.35;;;;;;;;;;5002288;28;20046;-77
2022/07/13 03:26:25;;;;;;;6.30;5.70;;;;;;;;;;5003066;28;20753;-77
2022/07/13 03:28:51;;;;;;;5.47;4.63;;;;;;;;;;5003253;28;20053;-77
2022/07/13 03:31:18;;;;;;;6.53;5.00;;;;;;;;;;5003428;28;20037;-77
2022/07/13 03:33:44;;;;;;;5.72;5.05;;;;;;;;;;5003577;28;20042;-75
2022/07/13 03:36:10;;;;;;;9.15;5.97;;;;;;;;;;5003758;28;20113;-77
2022/07/13 03:38:36;;;;;;;7.60;6.28;;;;;;;;;;5001901;28;20037;-77
2022/07/13 03:41:02;;;;;;;8.45;6.40;;;;;;;;;;5002367;28;20038;-78
2022/07/13 03:43:29;;;;;;;9.77;5.78;;;;;;;;;;5003418;28;20550;-77
2022/07/13 03:45:54;;;;;;;7.25;5.20;;;;;;;;;;5003142;28;20033;-78
2022/07/13 03:48:20;;;;;;;7.72;4.95;;;;;;;;;;5002096;28;20077;-78
2022/07/13 03:50:47;;;;;;;8.18;6.50;;;;;;;;;;5002941;28;20037;-77
2022/07/13 03:53:13;;;;;;;6.28;5.38;;;;;;;;;;5003523;28;20042;-77
2022/07/13 03:55:40;;;;;;;6.88;5.68;;;;;;;;;;5003065;28;20042;-78
2022/07/13 03:58:06;;;;;;;5.72;5.22;;;;;;;;;;5002934;28;20045;-77
2022/07/13 04:00:32;;;;;;;9.30;6.60;;;;;;;;;;5003098;28;20082;-78
2022/07/13 04:02:59;;;;;;;8.35;5.68;;;;;;;;;;5003022;28;20050;-78
2022/07/13 04:05:25;;;;;;;6.82;6.13;;;;;;;;;;5002275;28;20061;-78
2022/07/13 04:07:51;;;;;;;10.18;5.97;;;;;;;;;;5000981;28;20136;-78
2022/07/13 04:10:21;;;;;;;8.63;6.35;;;;;;;;;;5002337;28;20107;-78
2022/07/13 04:12:47;;;;;;;6.82;6.13;;;;;;;;;;4995315;28;20057;-78
2022/07/13 04:15:13;;;;;;;9.10;7.47;;;;;;;;;;5001149;28;20062;-78
2022/07/13 04:17:40;;;;;;;7.07;6.38;;;;;;;;;;5003308;28;20480;-77
2022/07/13 04:20:06;;;;;;;9.18;7.35;;;;;;;;;;5002508;28;20092;-77
2022/07/13 04:22:32;;;;;;;7.63;6.82;;;;;;;;;;5001412;28;20042;-78
2022/07/13 04:24:58;;;;;;;8.07;5.85;;;;;;;;;;5002122;28;20558;-77
2022/07/13 04:27:24;;;;;;;10.00;7.40;;;;;;;;;;5001733;28;20129;-78
2022/07/13 04:29:50;;;;;;;8.38;6.15;;;;;;;;;;5002556;28;20129;-77
2022/07/13 04:32:16;;;;;;;8.15;6.13;;;;;;;;;;5002798;28;20045;-78
2022/07/13 04:34:42;;;;;;;8.77;7.28;;;;;;;;;;5002705;28;20623;-77
2022/07/13 04:37:08;;;;;;;10.52;6.88;;;;;;;;;;5002160;28;20483;-78
2022/07/13 04:39:34;;;;;;;8.57;7.47;;;;;;;;;;5002371;28;20042;-78
2022/07/13 04:42:00;;;;;;;7.10;5.53;;;;;;;;;;5000968;28;20488;-78
2022/07/13 04:44:26;;;;;;;6.72;5.85;;;;;;;;;;5001026;28;20129;-77
2022/07/13 04:46:53;;;;;;;7.65;6.85;;;;;;;;;;5001529;28;20046;-78
2022/07/13 04:49:19;;;;;;;8.02;5.78;;;;;;;;;;5000634;28;20483;-78
2022/07/13 04:51:47;;;;;;;7.25;6.55;;;;;;;;;;5001991;28;20691;-78
2022/07/13 04:54:15;;;;;;;9.93;6.97;;;;;;;;;;5001808;28;20057;-77
2022/07/13 04:56:41;;;;;;;8.00;5.78;;;;;;;;;;5000278;28;20496;-78
2022/07/13 04:59:07;;;;;;;10.02;6.18;;;;;;;;;;5001563;28;20103;-78
2022/07/13 05:01:33;;;;;;;11.45;6.57;;;;;;;;;;5001096;28;20404;-77
2022/07/13 05:03:59;;;;;;;6.63;5.63;;;;;;;;;;5001259;28;20139;-77
2022/07/13 05:06:25;;;;;;;9.70;6.78;;;;;;;;;;5001562;28;20056;-77
2022/07/13 05:08:51;;;;;;;6.97;6.20;;;;;;;;;;5000178;28;20109;-78
2022/07/13 05:11:17;;;;;;;7.13;6.43;;;;;;;;;;5000544;28;20462;-78
2022/07/13 05:13:43;;;;;;;9.13;6.10;;;;;;;;;;5001863;28;20046;-78
2022/07/13 05:16:10;;;;;;;6.93;6.15;;;;;;;;;;5000465;28;20060;-77
2022/07/13 05:18:36;;;;;;;8.05;6.30;;;;;;;;;;5001387;28;20131;-78
2022/07/13 05:21:02;;;;;;;7.63;6.00;;;;;;;;;;4999651;28;20041;-77
2022/07/13 05:23:28;;;;;;;7.60;5.38;;;;;;;;;;5001599;28;20069;-78
2022/07/13 05:25:54;;;;;;;10.40;4.75;;;;;;;;;;4999280;28;20124;-77
2022/07/13 05:28:20;;;;;;;5.22;4.70;;;;;;;;;;5000902;28;20045;-81
2022/07/13 05:30:46;;;;;;;4.53;3.70;;;;;;;;;;4992408;28;20057;-80
2022/07/13 05:33:14;;;;;;;5.57;3.50;;;;;;;;;;4999125;28;20484;-79
2022/07/13 05:35:40;;;;;;;6.70;4.07;;;;;;;;;;4994426;28;20100;-79
2022/07/13 05:38:07;;;;;;;5.78;4.72;;;;;;;;;;5000276;28;20053;-79
2022/07/13 05:40:32;;;;;;;4.90;3.70;;;;;;;;;;5000291;28;20030;-79
2022/07/13 05:42:58;;;;;;;4.85;4.32;;;;;;;;;;5000817;28;20059;-79
2022/07/13 05:45:25;;;;;;;7.45;4.57;;;;;;;;;;4999841;28;20574;-79
2022/07/13 05:47:51;;;;;;;4.75;3.88;;;;;;;;;;4999772;28;20046;-79
2022/07/13 05:50:17;;;;;;;4.38;3.90;;;;;;;;;;5000013;28;20129;-79
2022/07/13 05:52:44;;;;;;;7.13;5.85;;;;;;;;;;5001260;28;20382;-79
2022/07/13 05:55:10;;;;;;;5.07;4.55;;;;;;;;;;4999129;28;20531;-79
2022/07/13 05:57:37;;;;;;;5.20;4.63;;;;;;;;;;5001025;28;20034;-79
2022/07/13 06:00:05;;;;;;;7.28;5.18;;;;;;;;;;5000013;28;20096;-79
2022/07/13 06:02:31;;;;;;;4.82;4.25;;;;;;;;;;4999597;28;20038;-79
2022/07/13 06:04:57;;;;;;;7.25;4.90;;;;;;;;;;4999964;28;20049;-79
2022/07/13 06:07:23;;;;;;;7.80;4.78;;;;;;;;;;5000468;28;20856;-80
2022/07/13 06:10:01;;;;;;;9.63;4.68;;;;;;;;;;4998313;28;20125;-78
2022/07/13 06:12:36;;;;;;;7.25;4.90;;;;;;;;;;4976319;28;20125;-78
2022/07/13 06:15:02;;;;;;;7.45;5.25;;;;;;;;;;4994582;28;20445;-77
2022/07/13 06:17:28;;;;;;;6.25;4.38;;;;;;;;;;4999008;28;20132;-77
2022/07/13 06:19:54;;;;;;;5.45;4.95;;;;;;;;;;4998896;28;20128;-77
2022/07/13 06:22:20;;;;;;;5.93;5.22;;;;;;;;;;4998818;28;20439;-77
2022/07/13 06:24:46;;;;;;;8.50;5.57;;;;;;;;;;4998695;28;20038;-77
2022/07/13 06:27:12;;;;;;;7.60;5.55;;;;;;;;;;4999878;28;20528;-78
2022/07/13 06:29:38;;;;;;;7.10;4.97;;;;;;;;;;4999175;28;20037;-78
2022/07/13 06:32:04;;;;;;;5.35;4.85;;;;;;;;;;4995259;28;20256;-78
2022/07/13 06:34:30;;;;;;;6.68;5.93;;;;;;;;;;4991282;28;20057;-78
2022/07/13 06:36:56;;;;;;;10.07;5.85;;;;;;;;;;4998715;28;20488;-78
2022/07/13 06:39:22;;;;;;;6.85;5.75;;;;;;;;;;4994354;28;20883;-78
2022/07/13 06:41:48;;;;;;;4.97;4.40;;;;;;;;;;4985652;28;20038;-78
2022/07/13 06:44:14;;;;;;;6.43;5.80;;;;;;;;;;4992036;28;20050;-77
2022/07/13 06:46:40;;;;;;;7.03;5.88;;;;;;;;;;4992233;28;20092;-77
2022/07/13 06:49:06;;;;;;;5.75;4.95;;;;;;;;;;4991194;28;20046;-77
2022/07/13 06:51:32;;;;;;;9.90;4.82;;;;;;;;;;5000164;28;20042;-77
2022/07/13 06:53:58;;;;;;;8.70;5.00;;;;;;;;;;4997925;28;20085;-78
2022/07/13 06:56:24;;;;;;;9.00;5.15;;;;;;;;;;4995549;28;20529;-77
2022/07/13 06:58:50;;;;;;;5.57;5.03;;;;;;;;;;4990605;28;20078;-78
2022/07/13 07:01:16;;;;;;;7.90;5.35;;;;;;;;;;4997173;28;20077;-77
2022/07/13 07:03:42;;;;;;;6.05;5.35;;;;;;;;;;4994274;28;20520;-78
2022/07/13 07:06:08;;;;;;;4.68;3.90;;;;;;;;;;4998278;28;20403;-77
2022/07/13 07:08:34;;;;;;;5.38;4.22;;;;;;;;;;4998592;28;20050;-78
2022/07/13 07:11:01;;;;;;;5.90;5.10;;;;;;;;;;4981232;28;20546;-78
2022/07/13 07:13:27;;;;;;;5.15;4.50;;;;;;;;;;4996178;28;20045;-77
2022/07/13 07:15:53;;;;;;;3.95;3.63;;;;;;;;;;4999039;28;20141;-78
2022/07/13 07:18:21;;;;;;;5.25;3.95;;;;;;;;;;4998490;28;20053;-78
2022/07/13 07:20:47;;;;;;;6.28;4.32;;;;;;;;;;4999392;28;20134;-77
2022/07/13 07:23:14;;;;;;;6.20;4.43;;;;;;;;;;4990689;28;20089;-76
2022/07/13 07:25:40;;;;;;;5.07;3.88;;;;;;;;;;4984622;28;20073;-77
2022/07/13 07:28:07;;;;;;;4.53;3.53;;;;;;;;;;4998410;28;20042;-78
2022/07/13 07:30:33;;;;;;;3.60;3.03;;;;;;;;;;4994095;28;20041;-84
2022/07/13 07:32:59;;;;;;;5.90;3.40;;;;;;;;;;4998998;28;20041;-81
2022/07/13 07:35:25;;;;;;;3.78;3.42;;;;;;;;;;4994070;28;20508;-81
2022/07/13 07:37:51;;;;;;;3.30;3.00;;;;;;;;;;4998452;28;20038;-80
2022/07/13 07:40:17;;;;;;;3.00;2.80;;;;;;;;;;4998595;28;20053;-82
2022/07/13 07:42:43;;;;;;;2.88;2.67;;;;;;;;;;4996151;28;20042;-80
2022/07/13 07:45:10;;;;;;;3.53;2.75;;;;;;;;;;4996989;28;20053;-81
2022/07/13 07:47:36;;;;;;;2.75;2.45;;;;;;;;;;4999637;28;20052;-80
2022/07/13 07:50:03;;;;;;;2.92;2.67;;;;;;;;;;5001136;28;20607;-79
2022/07/13 07:52:29;;;;;;;3.95;2.88;;;;;;;;;;5002537;28;20390;-80
2022/07/13 07:54:56;;;;;;;2.78;2.08;;;;;;;;;;5002208;28;20116;-81
2022/07/13 07:57:22;;;;;;;2.20;2.00;;;;;;;;;;5001961;28;20037;-80
2022/07/13 07:59:48;;;;;;;1.45;1.35;;;;;;;;;;5002631;28;20128;-81
2022/07/13 08:02:14;;;;;;;3.45;1.95;;;;;;;;;;5002883;28;20543;-76
2022/07/13 08:04:40;;;;;;;1.50;1.40;;;;;;;;;;5003105;28;20061;-81
2022/07/13 08:07:07;;;;;;;2.67;1.40;;;;;;;;;;5002257;28;20061;-80
2022/07/13 08:09:33;;;;;;;3.65;2.05;;;;;;;;;;5000596;28;20058;-80
2022/07/13 08:12:00;;;;;;;2.13;1.92;;;;;;;;;;4996498;28;20452;-81
2022/07/13 08:14:26;;;;;;;2.75;1.70;;;;;;;;;;5001694;28;20108;-81
2022/07/13 08:16:53;;;;;;;3.38;2.28;;;;;;;;;;4991351;28;20046;-80
2022/07/13 08:19:19;;;;;;;1.70;1.55;;;;;;;;;;5000965;28;20555;-81
2022/07/13 08:21:45;;;;;;;3.25;2.58;;;;;;;;;;4998622;28;20488;-81
2022/07/13 08:24:11;;;;;;;3.25;1.88;;;;;;;;;;5001025;28;20044;-82
2022/07/13 08:26:37;;;;;;;1.40;1.30;;;;;;;;;;5001158;28;20116;-78
2022/07/13 08:29:03;;;;;;;4.47;2.03;;;;;;;;;;4994777;28;20046;-78
2022/07/13 08:31:29;;;;;;;2.85;1.85;;;;;;;;;;4982898;28;20097;-77
2022/07/13 08:39:26;;;;;;;2.28;1.85;;;;;;;;;;4997690;28;20065;-78
2022/07/13 08:41:52;;;;;;;1.98;1.77;;;;;;;;;;4985688;28;20046;-81
2022/07/13 08:44:18;;;;;;;2.72;2.53;;;;;;;;;;4974618;28;20483;-82
2022/07/13 08:46:47;;;;;;;1.52;1.20;;;;;;;;;;4999652;28;20483;-82
2022/07/13 08:49:13;;;;;;;1.83;1.67;;;;;;;;;;5001674;28;20049;-78
2022/07/13 08:51:45;;;;;;;1.50;1.30;;;;;;;;;;5002664;28;20082;-83
2022/07/13 08:54:12;;;;;;;2.42;1.70;;;;;;;;;;4983291;28;20060;-82
2022/07/13 08:56:40;;;;;;;2.13;1.42;;;;;;;;;;4981233;28;20049;-81
2022/07/13 08:59:06;;;;;;;1.85;1.70;;;;;;;;;;4964772;28;20057;-79
2022/07/13 09:01:32;;;;;;;4.40;2.17;;;;;;;;;;4982221;28;20038;-78
2022/07/13 09:03:58;;;;;;;2.75;2.25;;;;;;;;;;4981954;28;20062;-78
2022/07/13 09:06:55;;;;;;;2.22;1.83;;;;;;;;;;5003208;28;20131;-79
2022/07/13 09:09:30;;;;;;;3.03;2.75;;;;;;;;;;4983234;28;20120;-79
2022/07/13 09:12:20;;;;;;;3.58;2.90;;;;;;;;;;4997585;28;20113;-80
2022/07/13 09:14:51;;;;;;;2.75;2.17;;;;;;;;;;4973696;28;20058;-78
2022/07/13 09:17:34;;;;;;;2.37;2.17;;;;;;;;;;4982180;28;20493;-79
2022/07/13 09:20:19;;;;;;;2.30;1.80;;;;;;;;;;4987820;28;20500;-79
2022/07/13 09:22:53;;;;;;;4.40;3.33;;;;;;;;;;4992679;28;20755;-78
2022/07/13 09:25:26;;;;;;;2.97;2.67;;;;;;;;;;4988095;28;20058;-80
2022/07/13 09:27:53;;;;;;;2.35;2.15;;;;;;;;;;4991292;28;20165;-80
2022/07/13 09:30:26;;;;;;;1.58;1.48;;;;;;;;;;4991321;28;20079;-82
2022/07/13 09:32:56;;;;;;;3.08;1.88;;;;;;;;;;4991771;28;20073;-80
2022/07/13 09:35:40;;;;;;;2.90;2.05;;;;;;;;;;4990832;28;20072;-78
2022/07/13 09:38:07;;;;;;;12.02;2.30;;;;;;;;;;4996470;28;20049;-79
2022/07/13 09:40:33;;;;;;;2.05;1.85;;;;;;;;;;4999917;28;20484;-77
2022/07/13 09:48:30;;;;;;;4.47;2.58;;;;;;;;;;4987194;28;20515;-83
2022/07/13 09:50:56;;;;;;;2.30;1.75;;;;;;;;;;5000779;28;20833;-80
2022/07/13 09:53:27;;;;;;;2.55;2.22;;;;;;;;;;5001928;28;20128;-80
2022/07/13 09:55:53;;;;;;;1.92;1.73;;;;;;;;;;5000845;28;20038;-82
2022/07/13 09:58:33;;;;;;;1.45;1.33;;;;;;;;;;4984188;28;20606;-79
2022/07/13 10:00:59;;;;;;;1.75;1.65;;;;;;;;;;4999880;28;20045;-80
2022/07/13 10:03:29;;;;;;;1.38;1.20;;;;;;;;;;5002124;28;20080;-79
2022/07/13 10:05:55;;;;;;;2.92;1.88;;;;;;;;;;5001054;28;20042;-81
2022/07/13 10:08:22;;;;;;;2.10;1.30;;;;;;;;;;5003143;28;20128;-82
2022/07/13 10:10:48;;;;;;;1.73;1.58;;;;;;;;;;5001659;28;20050;-82
2022/07/13 10:13:14;;;;;;;2.63;1.90;;;;;;;;;;5003115;28;20076;-79
2022/07/13 10:15:41;;;;;;;5.20;1.98;;;;;;;;;;5002007;28;20046;-79
2022/07/13 10:18:09;;;;;;;3.55;1.65;;;;;;;;;;5001927;28;20388;-80
2022/07/13 10:20:36;;;;;;;5.70;1.90;;;;;;;;;;5000534;28;20046;-84
2022/07/13 10:23:03;;;;;;;2.10;1.33;;;;;;;;;;5002884;28;20041;-79
2022/07/13 10:25:42;;;;;;;2.17;1.98;;;;;;;;;;5001759;28;20050;-80
2022/07/13 10:28:09;;;;;;;4.40;1.67;;;;;;;;;;5003172;28;20041;-80
2022/07/13 10:30:36;;;;;;;1.63;1.50;;;;;;;;;;5002397;28;20558;-79
2022/07/13 10:33:21;;;;;;;2.45;1.40;;;;;;;;;;4987249;28;20129;-80
2022/07/13 10:35:58;;;;;;;1.95;1.35;;;;;;;;;;4979436;28;20057;-76
2022/07/13 10:38:28;;;;;;;1.40;1.30;;;;;;;;;;4979636;28;20118;-76
2022/07/13 10:41:12;;;;;;;4.32;1.58;;;;;;;;;;4978809;28;20930;-77
2022/07/13 10:43:38;;;;;;;1.65;1.55;;;;;;;;;;4980897;28;20098;-79
2022/07/13 10:46:05;;;;;;;1.73;1.63;;;;;;;;;;4981018;28;20081;-79
2022/07/13 10:48:34;;;;;;;1.77;1.63;;;;;;;;;;4980120;28;20042;-76
2022/07/13 10:51:01;;;;;;;1.83;1.42;;;;;;;;;;4963011;28;20042;-79
2022/07/13 10:53:40;;;;;;;1.17;1.08;;;;;;;;;;4979831;28;20042;-80
2022/07/13 10:56:17;;;;;;;1.63;1.52;;;;;;;;;;4978247;28;20054;-78
2022/07/13 10:58:43;;;;;;;3.80;1.92;;;;;;;;;;4967447;28;20040;-75
2022/07/13 11:01:28;;;;;;;1.48;1.38;;;;;;;;;;4998853;28;20576;-78
2022/07/13 11:03:55;;;;;;;2.38;1.80;;;;;;;;;;4998249;28;20061;-79
2022/07/13 11:06:24;;;;;;;3.58;1.67;;;;;;;;;;5000030;28;20112;-78
2022/07/13 11:09:09;;;;;;;1.55;1.45;;;;;;;;;;4999844;28;20046;-78
2022/07/13 11:11:35;;;;;;;5.38;1.85;;;;;;;;;;4998839;28;20042;-78
2022/07/13 11:14:21;;;;;;;1.83;1.40;;;;;;;;;;4982016;28;20046;-78
2022/07/13 11:16:50;;;;;;;2.47;1.83;;;;;;;;;;4999266;28;20038;-78
2022/07/13 11:19:16;;;;;;;2.20;2.00;;;;;;;;;;4999558;28;20101;-80
2022/07/13 11:22:00;;;;;;;1.77;1.67;;;;;;;;;;4999730;28;20042;-79
2022/07/13 11:27:13;;;;;;;9.25;1.98;;;;;;;;;;5004170;28;20424;-77
2022/07/13 11:29:58;;;;;;;3.60;2.30;;;;;;;;;;4986121;28;20046;-79
2022/07/13 11:32:25;;;;;;;2.38;1.67;;;;;;;;;;5001900;28;20092;-83
2022/07/13 11:34:52;;;;;;;1.75;1.35;;;;;;;;;;5003054;28;20038;-81
2022/07/13 11:37:25;;;;;;;2.72;1.98;;;;;;;;;;5003068;28;20095;-86
2022/07/13 11:39:51;;;;;;;3.72;2.00;;;;;;;;;;5001012;28;20052;-83
2022/07/13 11:42:22;;;;;;;3.10;1.95;;;;;;;;;;5003524;28;20042;-82
2022/07/13 11:44:51;;;;;;;2.90;2.03;;;;;;;;;;4985145;28;20057;-81
2022/07/13 11:47:17;;;;;;;2.22;2.03;;;;;;;;;;4985550;28;20088;-80
2022/07/13 11:49:47;;;;;;;2.90;1.63;;;;;;;;;;4985783;28;20052;-80
2022/07/13 11:52:26;;;;;;;1.70;1.60;;;;;;;;;;4994105;28;20038;-80
2022/07/13 11:54:59;;;;;;;4.30;1.85;;;;;;;;;;4997734;28;20081;-79
2022/07/13 11:57:25;;;;;;;2.05;1.90;;;;;;;;;;5002797;28;20128;-76
2022/07/13 11:59:51;;;;;;;2.70;2.47;;;;;;;;;;5003111;28;20046;-76
2022/07/13 12:02:17;;;;;;;1.45;1.35;;;;;;;;;;5001621;28;20125;-79
2022/07/13 12:04:44;;;;;;;4.75;2.42;;;;;;;;;;5001672;28;20826;-78
2022/07/13 12:07:17;;;;;;;1.83;1.73;;;;;;;;;;5003800;28;20740;-77
2022/07/13 12:10:03;;;;;;;3.05;2.30;;;;;;;;;;5002024;28;20050;-78
2022/07/13 12:12:30;;;;;;;2.33;2.10;;;;;;;;;;5001259;28;20042;-78
2022/07/13 12:14:57;;;;;;;2.22;2.03;;;;;;;;;;5001853;28;20046;-78
2022/07/13 12:17:24;;;;;;;2.70;2.17;;;;;;;;;;5003156;28;20408;-78
2022/07/13 12:19:50;;;;;;;2.20;1.95;;;;;;;;;;5001175;28;20149;-78
2022/07/13 12:22:20;;;;;;;3.28;2.70;;;;;;;;;;5002323;28;20088;-78
2022/07/13 12:24:47;;;;;;;1.77;1.67;;;;;;;;;;5001239;28;20500;-79
2022/07/13 12:27:26;;;;;;;2.65;2.38;;;;;;;;;;5003183;28;20042;-78
2022/07/13 12:30:06;;;;;;;2.17;1.92;;;;;;;;;;5002391;28;20092;-78
2022/07/13 12:32:32;;;;;;;3.85;2.22;;;;;;;;;;5001149;28;20500;-78
2022/07/13 12:34:57;;;;;;;1.63;1.50;;;;;;;;;;5001262;28;20518;-78
2022/07/13 12:37:36;;;;;;;2.45;1.92;;;;;;;;;;5002111;28;20038;-78
2022/07/13 12:40:03;;;;;;;6.97;1.98;;;;;;;;;;5000647;28;20037;-78
2022/07/13 12:42:29;;;;;;;4.90;2.08;;;;;;;;;;4998909;28;20514;-80
2022/07/13 12:44:55;;;;;;;2.53;1.73;;;;;;;;;;4974736;28;20038;-79
2022/07/13 12:47:24;;;;;;;3.38;1.67;;;;;;;;;;4980749;28;20050;-78
2022/07/13 12:49:50;;;;;;;3.65;2.13;;;;;;;;;;4982264;28;20677;-77
2022/07/13 12:52:20;;;;;;;2.97;1.80;;;;;;;;;;4988270;28;20051;-78
2022/07/13 12:54:49;;;;;;;7.63;2.60;;;;;;;;;;4963693;28;20046;-78
2022/07/13 12:57:16;;;;;;;3.42;2.20;;;;;;;;;;4982394;28;20076;-78
2022/07/13 12:59:59;;;;;;;4.43;2.20;;;;;;;;;;4992169;28;20112;-77
2022/07/13 13:02:25;;;;;;;1.70;1.60;;;;;;;;;;4982757;28;20057;-78
2022/07/13 13:04:51;;;;;;;4.18;1.67;;;;;;;;;;4981657;28;20473;-78
2022/07/13 13:07:17;;;;;;;1.65;1.23;;;;;;;;;;4982856;28;20081;-77
2022/07/13 13:09:43;;;;;;;5.75;1.40;;;;;;;;;;4981253;28;20050;-77
2022/07/13 13:12:09;;;;;;;3.30;1.55;;;;;;;;;;4968898;28;20038;-79
2022/07/13 13:14:35;;;;;;;2.33;1.35;;;;;;;;;;5001647;28;20042;-78
2022/07/13 13:17:01;;;;;;;1.85;1.42;;;;;;;;;;5000821;28;20424;-78
2022/07/13 13:19:27;;;;;;;1.85;1.38;;;;;;;;;;4998215;28;20042;-78
2022/07/13 13:21:53;;;;;;;3.67;1.73;;;;;;;;;;5000131;28;20420;-82
2022/07/13 13:24:19;;;;;;;1.73;1.60;;;;;;;;;;5000868;28;20188;-81
2022/07/13 13:26:45;;;;;;;2.38;1.48;;;;;;;;;;5000717;28;20127;-85
2022/07/13 13:31:57;;;;;;;3.75;2.20;;;;;;;;;;5001286;28;20046;-81
2022/07/13 13:34:23;;;;;;;2.38;1.63;;;;;;;;;;4991383;28;20054;-85
2022/07/13 13:36:50;;;;;;;2.35;1.73;;;;;;;;;;4966798;28;20046;-86
2022/07/13 13:39:16;;;;;;;4.30;1.38;;;;;;;;;;4979764;28;20050;-84
2022/07/13 13:41:42;;;;;;;4.90;1.92;;;;;;;;;;4989644;28;20068;-84
2022/07/13 13:44:08;;;;;;;4.13;1.60;;;;;;;;;;4986438;28;20627;-85
2022/07/13 13:46:34;;;;;;;4.95;1.50;;;;;;;;;;4996437;28;20046;-84
2022/07/13 13:49:00;;;;;;;6.18;1.73;;;;;;;;;;4987909;28;20042;-84
2022/07/13 13:51:26;;;;;;;4.05;1.00;;;;;;;;;;4986829;28;20041;-85
2022/07/13 13:53:52;;;;;;;2.88;1.98;;;;;;;;;;4998199;28;20045;-80
2022/07/13 13:56:19;;;;;;;1.75;1.13;;;;;;;;;;4998183;28;20360;-79
2022/07/13 13:58:45;;;;;;;7.65;1.80;;;;;;;;;;4989308;28;20057;-79
2022/07/13 14:01:11;;;;;;;3.03;1.77;;;;;;;;;;4973576;28;20042;-79
2022/07/13 14:03:38;;;;;;;3.30;2.13;;;;;;;;;;5000031;28;20064;-79
2022/07/13 14:06:05;;;;;;;6.32;2.28;;;;;;;;;;5000429;28;20046;-79
2022/07/13 14:08:31;;;;;;;5.28;2.25;;;;;;;;;;4997268;28;20054;-78
2022/07/13 14:10:57;;;;;;;11.93;2.13;;;;;;;;;;4999164;28;20038;-79
2022/07/13 14:13:23;;;;;;;4.85;1.95;;;;;;;;;;4984891;28;20060;-78
2022/07/13 14:15:49;;;;;;;8.32;2.30;;;;;;;;;;4979337;28;20580;-79
2022/07/13 14:18:16;;;;;;;2.95;1.42;;;;;;;;;;4978563;28;20081;-79
2022/07/13 14:20:43;;;;;;;4.40;1.38;;;;;;;;;;4980654;28;20053;-78
2022/07/13 14:23:09;;;;;;;2.13;1.48;;;;;;;;;;4980621;28;20129;-79
2022/07/13 14:25:35;;;;;;;2.30;1.70;;;;;;;;;;4983310;28;20088;-79
2022/07/13 14:28:01;;;;;;;6.30;1.48;;;;;;;;;;4971600;28;20046;-79
2022/07/13 14:30:28;;;;;;;2.38;1.75;;;;;;;;;;4987808;28;20034;-79
2022/07/13 14:32:55;;;;;;;3.65;2.33;;;;;;;;;;4986845;28;20489;-78
2022/07/13 14:35:21;;;;;;;8.57;2.42;;;;;;;;;;4987859;28;20054;-78
2022/07/13 14:37:48;;;;;;;3.95;1.67;;;;;;;;;;4995617;28;20042;-79
2022/07/13 14:40:14;;;;;;;4.10;2.25;;;;;;;;;;4998563;28;20050;-79
2022/07/13 14:42:40;;;;;;;6.20;2.33;;;;;;;;;;4999159;28;20038;-78
2022/07/13 14:45:06;;;;;;;8.52;2.53;;;;;;;;;;4996936;28;20534;-79
2022/07/13 14:47:32;;;;;;;2.17;1.63;;;;;;;;;;4992349;28;20076;-79
2022/07/13 14:49:58;;;;;;;7.13;2.33;;;;;;;;;;4983577;28;20057;-81
2022/07/13 14:52:25;;;;;;;3.00;1.55;;;;;;;;;;4976020;28;20050;-77
2022/07/13 14:54:51;;;;;;;4.05;1.67;;;;;;;;;;4994174;28;20056;-81
2022/07/13 14:57:17;;;;;;;3.42;2.08;;;;;;;;;;4982261;28;20050;-82